sensor_id;sensor_type;location;lat;lon;timestamp;temperature;humidity
37896;DHT22;23733;53.254;10.430;2022-10-16T00:01:41;14.50;99.90
37896;DHT22;23733;53.254;10.430;2022-10-16T00:04:08;14.60;99.90
37896;DHT22;23733;53.254;10.430;2022-10-16T00:06:34;14.50;99.90
37896;DHT22;23733;53.254;10.430;2022-10-16T00:09:00;14.50;99.90
37896;DHT22;23733;53.254;10.430;2022-10-16T00:11:33;14.50;99.90
37896;DHT22;23733;53.254;10.430;2022-10-16T00:14:05;14.50;99.90
37896;DHT22;23733;53.254;10.430;2022-10-16T00:16:31;14.50;99.90
37896;DHT22;23733;53.254;10.430;2022-10-16T00:18:58;14.50;99.90
37896;DHT22;23733;53.254;10.430;2022-10-16T00:21:26;14.40;99.90
37896;DHT22;23733;53.254;10.430;2022-10-16T00:23:58;14.50;99.90
37896;DHT22;23733;53.254;10.430;2022-10-16T00:26:25;14.40;99.90
37896;DHT22;23733;53.254;10.430;2022-10-16T00:28:51;14.40;99.90
37896;DHT22;23733;53.254;10.430;2022-10-16T00:31:19;14.40;99.90
37896;DHT22;23733;53.254;10.430;2022-10-16T00:33:45;14.40;99.90
37896;DHT22;23733;53.254;10.430;2022-10-16T00:36:14;14.30;99.90
37896;DHT22;23733;53.254;10.430;2022-10-16T00:38:41;14.30;99.90
37896;DHT22;23733;53.254;10.430;2022-10-16T00:41:11;14.30;99.90
37896;DHT22;23733;53.254;10.430;2022-10-16T00:43:44;14.30;99.90
37896;DHT22;23733;53.254;10.430;2022-10-16T00:48:40;14.30;99.90
37896;DHT22;23733;53.254;10.430;2022-10-16T00:51:07;14.20;99.90
37896;DHT22;23733;53.254;10.430;2022-10-16T00:53:33;14.20;99.90
37896;DHT22;23733;53.254;10.430;2022-10-16T00:56:01;14.20;99.90
37896;DHT22;23733;53.254;10.430;2022-10-16T00:58:27;14.20;99.90
37896;DHT22;23733;53.254;10.430;2022-10-16T01:03:37;14.20;99.90
37896;DHT22;23733;53.254;10.430;2022-10-16T01:06:19;14.10;99.90
37896;DHT22;23733;53.254;10.430;2022-10-16T01:09:14;14.10;99.90
37896;DHT22;23733;53.254;10.430;2022-10-16T01:11:58;14.10;99.90
37896;DHT22;23733;53.254;10.430;2022-10-16T01:14:56;14.00;99.90
37896;DHT22;23733;53.254;10.430;2022-10-16T01:17:30;14.00;99.90
37896;DHT22;23733;53.254;10.430;2022-10-16T01:20:23;14.00;99.90
37896;DHT22;23733;53.254;10.430;2022-10-16T01:23:21;13.90;99.90
37896;DHT22;23733;53.254;10.430;2022-10-16T01:26:10;13.90;99.90
37896;DHT22;23733;53.254;10.430;2022-10-16T01:28:45;13.90;99.90
37896;DHT22;23733;53.254;10.430;2022-10-16T01:31:14;13.90;99.90
37896;DHT22;23733;53.254;10.430;2022-10-16T01:33:47;13.90;99.90
37896;DHT22;23733;53.254;10.430;2022-10-16T01:36:21;13.90;99.90
37896;DHT22;23733;53.254;10.430;2022-10-16T01:38:51;13.90;99.90
37896;DHT22;23733;53.254;10.430;2022-10-16T01:41:38;13.80;99.90
37896;DHT22;23733;53.254;10.430;2022-10-16T01:44:10;13.80;99.90
37896;DHT22;23733;53.254;10.430;2022-10-16T01:46:43;13.80;99.90
37896;DHT22;23733;53.254;10.430;2022-10-16T01:49:11;13.80;99.90
37896;DHT22;23733;53.254;10.430;2022-10-16T01:51:38;13.80;99.90
37896;DHT22;23733;53.254;10.430;2022-10-16T01:54:06;13.70;99.90
37896;DHT22;23733;53.254;10.430;2022-10-16T01:56:34;13.70;99.90
37896;DHT22;23733;53.254;10.430;2022-10-16T01:59:09;13.70;99.90
37896;DHT22;23733;53.254;10.430;2022-10-16T02:01:39;13.70;99.90
37896;DHT22;23733;53.254;10.430;2022-10-16T02:04:21;13.70;99.90
37896;DHT22;23733;53.254;10.430;2022-10-16T02:06:48;13.70;99.90
37896;DHT22;23733;53.254;10.430;2022-10-16T02:09:14;13.60;99.90
37896;DHT22;23733;53.254;10.430;2022-10-16T02:11:43;13.60;99.90
37896;DHT22;23733;53.254;10.430;2022-10-16T02:14:09;13.60;99.90
37896;DHT22;23733;53.254;10.430;2022-10-16T02:16:39;13.50;99.90
37896;DHT22;23733;53.254;10.430;2022-10-16T02:19:06;13.60;99.90
37896;DHT22;23733;53.254;10.430;2022-10-16T02:21:47;13.50;99.90
37896;DHT22;23733;53.254;10.430;2022-10-16T02:27:17;13.50;99.90
37896;DHT22;23733;53.254;10.430;2022-10-16T02:29:56;13.40;99.90
37896;DHT22;23733;53.254;10.430;2022-10-16T02:32:29;13.40;99.90
37896;DHT22;23733;53.254;10.430;2022-10-16T02:34:56;13.40;99.90
37896;DHT22;23733;53.254;10.430;2022-10-16T02:37:24;13.40;99.90
37896;DHT22;23733;53.254;10.430;2022-10-16T02:39:51;13.40;99.90
37896;DHT22;23733;53.254;10.430;2022-10-16T02:42:18;13.40;99.90
37896;DHT22;23733;53.254;10.430;2022-10-16T02:44:44;13.40;99.90
37896;DHT22;23733;53.254;10.430;2022-10-16T02:47:10;13.40;99.90
37896;DHT22;23733;53.254;10.430;2022-10-16T02:49:36;13.30;99.90
37896;DHT22;23733;53.254;10.430;2022-10-16T02:52:02;13.30;99.90
37896;DHT22;23733;53.254;10.430;2022-10-16T02:54:28;13.30;99.90
37896;DHT22;23733;53.254;10.430;2022-10-16T02:56:54;13.20;99.90
37896;DHT22;23733;53.254;10.430;2022-10-16T02:59:20;13.30;99.90
37896;DHT22;23733;53.254;10.430;2022-10-16T03:01:46;13.30;99.90
37896;DHT22;23733;53.254;10.430;2022-10-16T03:04:12;13.30;99.90
37896;DHT22;23733;53.254;10.430;2022-10-16T03:09:05;13.20;99.90
37896;DHT22;23733;53.254;10.430;2022-10-16T03:16:23;13.20;99.90
37896;DHT22;23733;53.254;10.430;2022-10-16T03:18:49;13.20;99.90
37896;DHT22;23733;53.254;10.430;2022-10-16T03:21:16;13.20;99.90
37896;DHT22;23733;53.254;10.430;2022-10-16T03:23:42;13.10;99.90
37896;DHT22;23733;53.254;10.430;2022-10-16T03:26:08;13.10;99.90
37896;DHT22;23733;53.254;10.430;2022-10-16T03:28:34;13.10;99.90
37896;DHT22;23733;53.254;10.430;2022-10-16T03:31:00;13.10;99.90
37896;DHT22;23733;53.254;10.430;2022-10-16T03:33:26;13.10;99.90
37896;DHT22;23733;53.254;10.430;2022-10-16T03:35:53;13.00;99.90
37896;DHT22;23733;53.254;10.430;2022-10-16T03:38:20;13.00;99.90
37896;DHT22;23733;53.254;10.430;2022-10-16T03:40:47;13.00;99.90
37896;DHT22;23733;53.254;10.430;2022-10-16T03:43:13;13.00;99.90
37896;DHT22;23733;53.254;10.430;2022-10-16T03:45:39;13.00;99.90
37896;DHT22;23733;53.254;10.430;2022-10-16T03:48:05;12.90;99.90
37896;DHT22;23733;53.254;10.430;2022-10-16T03:50:31;12.90;99.90
37896;DHT22;23733;53.254;10.430;2022-10-16T03:52:57;12.90;99.90
37896;DHT22;23733;53.254;10.430;2022-10-16T03:55:23;12.90;99.90
37896;DHT22;23733;53.254;10.430;2022-10-16T03:57:49;12.90;99.90
37896;DHT22;23733;53.254;10.430;2022-10-16T04:00:15;12.90;99.90
37896;DHT22;23733;53.254;10.430;2022-10-16T04:02:41;12.90;99.90
37896;DHT22;23733;53.254;10.430;2022-10-16T04:05:08;12.90;99.90
37896;DHT22;23733;53.254;10.430;2022-10-16T04:07:34;12.90;99.90
37896;DHT22;23733;53.254;10.430;2022-10-16T04:10:00;12.80;99.90
37896;DHT22;23733;53.254;10.430;2022-10-16T04:12:27;12.80;99.90
37896;DHT22;23733;53.254;10.430;2022-10-16T04:14:53;12.80;99.90
37896;DHT22;23733;53.254;10.430;2022-10-16T04:17:19;12.80;99.90
37896;DHT22;23733;53.254;10.430;2022-10-16T04:19:45;12.80;99.90
37896;DHT22;23733;53.254;10.430;2022-10-16T04:22:11;12.80;99.90
37896;DHT22;23733;53.254;10.430;2022-10-16T04:24:37;12.80;99.90
37896;DHT22;23733;53.254;10.430;2022-10-16T04:27:03;12.80;99.90
37896;DHT22;23733;53.254;10.430;2022-10-16T04:29:29;12.80;99.90
37896;DHT22;23733;53.254;10.430;2022-10-16T04:31:55;12.70;99.90
37896;DHT22;23733;53.254;10.430;2022-10-16T04:34:21;12.70;99.90
37896;DHT22;23733;53.254;10.430;2022-10-16T04:36:48;12.70;99.90
37896;DHT22;23733;53.254;10.430;2022-10-16T04:39:18;12.70;99.90
37896;DHT22;23733;53.254;10.430;2022-10-16T04:41:44;12.70;99.90
37896;DHT22;23733;53.254;10.430;2022-10-16T04:44:10;12.60;99.90
37896;DHT22;23733;53.254;10.430;2022-10-16T04:46:36;12.60;99.90
37896;DHT22;23733;53.254;10.430;2022-10-16T04:49:02;12.70;99.90
37896;DHT22;23733;53.254;10.430;2022-10-16T04:51:28;12.60;99.90
37896;DHT22;23733;53.254;10.430;2022-10-16T04:53:54;12.70;99.90
37896;DHT22;23733;53.254;10.430;2022-10-16T04:56:21;12.70;99.90
37896;DHT22;23733;53.254;10.430;2022-10-16T04:58:47;12.70;99.90
37896;DHT22;23733;53.254;10.430;2022-10-16T05:01:13;12.60;99.90
37896;DHT22;23733;53.254;10.430;2022-10-16T05:03:39;12.60;99.90
37896;DHT22;23733;53.254;10.430;2022-10-16T05:08:32;12.60;99.90
37896;DHT22;23733;53.254;10.430;2022-10-16T05:10:58;12.60;99.90
37896;DHT22;23733;53.254;10.430;2022-10-16T05:13:24;12.60;99.90
37896;DHT22;23733;53.254;10.430;2022-10-16T05:15:50;12.60;99.90
37896;DHT22;23733;53.254;10.430;2022-10-16T05:18:17;12.60;99.90
37896;DHT22;23733;53.254;10.430;2022-10-16T05:20:43;12.60;99.90
37896;DHT22;23733;53.254;10.430;2022-10-16T05:23:09;12.60;99.90
37896;DHT22;23733;53.254;10.430;2022-10-16T05:25:36;12.60;99.90
37896;DHT22;23733;53.254;10.430;2022-10-16T05:28:02;12.60;99.90
37896;DHT22;23733;53.254;10.430;2022-10-16T05:30:28;12.60;99.90
37896;DHT22;23733;53.254;10.430;2022-10-16T05:32:55;12.60;99.90
37896;DHT22;23733;53.254;10.430;2022-10-16T05:35:21;12.60;99.90
37896;DHT22;23733;53.254;10.430;2022-10-16T05:37:47;12.60;99.90
37896;DHT22;23733;53.254;10.430;2022-10-16T05:40:14;12.50;99.90
37896;DHT22;23733;53.254;10.430;2022-10-16T05:42:40;12.50;99.90
37896;DHT22;23733;53.254;10.430;2022-10-16T05:45:09;12.60;99.90
37896;DHT22;23733;53.254;10.430;2022-10-16T05:47:35;12.50;99.90
37896;DHT22;23733;53.254;10.430;2022-10-16T05:50:02;12.60;99.90
37896;DHT22;23733;53.254;10.430;2022-10-16T05:52:29;12.50;99.90
37896;DHT22;23733;53.254;10.430;2022-10-16T05:54:55;12.50;99.90
37896;DHT22;23733;53.254;10.430;2022-10-16T05:57:21;12.50;99.90
37896;DHT22;23733;53.254;10.430;2022-10-16T05:59:47;12.50;99.90
37896;DHT22;23733;53.254;10.430;2022-10-16T06:02:14;12.50;99.90
37896;DHT22;23733;53.254;10.430;2022-10-16T06:04:40;12.50;99.90
37896;DHT22;23733;53.254;10.430;2022-10-16T06:07:06;12.50;99.90
37896;DHT22;23733;53.254;10.430;2022-10-16T06:09:32;12.40;99.90
37896;DHT22;23733;53.254;10.430;2022-10-16T06:11:58;12.50;99.90
37896;DHT22;23733;53.254;10.430;2022-10-16T06:14:24;12.50;99.90
37896;DHT22;23733;53.254;10.430;2022-10-16T06:16:50;12.50;99.90
37896;DHT22;23733;53.254;10.430;2022-10-16T06:19:16;12.40;99.90
37896;DHT22;23733;53.254;10.430;2022-10-16T06:21:43;12.40;99.90
37896;DHT22;23733;53.254;10.430;2022-10-16T06:24:09;12.40;99.90
37896;DHT22;23733;53.254;10.430;2022-10-16T06:26:35;12.40;99.90
37896;DHT22;23733;53.254;10.430;2022-10-16T06:29:01;12.40;99.90
37896;DHT22;23733;53.254;10.430;2022-10-16T06:31:29;12.40;99.90
37896;DHT22;23733;53.254;10.430;2022-10-16T06:33:57;12.40;99.90
37896;DHT22;23733;53.254;10.430;2022-10-16T06:36:23;12.40;99.90
37896;DHT22;23733;53.254;10.430;2022-10-16T06:38:50;12.40;99.90
37896;DHT22;23733;53.254;10.430;2022-10-16T06:41:18;12.40;99.90
37896;DHT22;23733;53.254;10.430;2022-10-16T06:43:45;12.40;99.90
37896;DHT22;23733;53.254;10.430;2022-10-16T06:46:14;12.30;99.90
37896;DHT22;23733;53.254;10.430;2022-10-16T06:48:41;12.30;99.90
37896;DHT22;23733;53.254;10.430;2022-10-16T06:51:12;12.30;99.90
37896;DHT22;23733;53.254;10.430;2022-10-16T06:53:41;12.30;99.90
37896;DHT22;23733;53.254;10.430;2022-10-16T06:58:33;12.40;99.90
37896;DHT22;23733;53.254;10.430;2022-10-16T07:00:59;12.40;99.90
37896;DHT22;23733;53.254;10.430;2022-10-16T07:03:25;12.40;99.90
37896;DHT22;23733;53.254;10.430;2022-10-16T07:05:51;12.40;99.90
37896;DHT22;23733;53.254;10.430;2022-10-16T07:08:17;12.40;99.90
37896;DHT22;23733;53.254;10.430;2022-10-16T07:10:43;12.30;99.90
37896;DHT22;23733;53.254;10.430;2022-10-16T07:13:09;12.40;99.90
37896;DHT22;23733;53.254;10.430;2022-10-16T07:15:39;12.40;99.90
37896;DHT22;23733;53.254;10.430;2022-10-16T07:18:05;12.40;99.90
37896;DHT22;23733;53.254;10.430;2022-10-16T07:20:31;12.30;99.90
37896;DHT22;23733;53.254;10.430;2022-10-16T07:22:57;12.40;99.90
37896;DHT22;23733;53.254;10.430;2022-10-16T07:25:23;12.40;99.90
37896;DHT22;23733;53.254;10.430;2022-10-16T07:27:49;12.30;99.90
37896;DHT22;23733;53.254;10.430;2022-10-16T07:30:15;12.40;99.90
37896;DHT22;23733;53.254;10.430;2022-10-16T07:32:41;12.40;99.90
37896;DHT22;23733;53.254;10.430;2022-10-16T07:35:07;12.40;99.90
37896;DHT22;23733;53.254;10.430;2022-10-16T07:37:33;12.40;99.90
37896;DHT22;23733;53.254;10.430;2022-10-16T07:39:59;12.40;99.90
37896;DHT22;23733;53.254;10.430;2022-10-16T07:42:27;12.40;99.90
37896;DHT22;23733;53.254;10.430;2022-10-16T07:44:53;12.50;99.90
37896;DHT22;23733;53.254;10.430;2022-10-16T07:47:19;12.50;99.90
37896;DHT22;23733;53.254;10.430;2022-10-16T07:49:46;12.40;99.90
37896;DHT22;23733;53.254;10.430;2022-10-16T07:52:12;12.50;99.90
37896;DHT22;23733;53.254;10.430;2022-10-16T07:54:38;12.50;99.90
37896;DHT22;23733;53.254;10.430;2022-10-16T07:57:04;12.60;99.90
37896;DHT22;23733;53.254;10.430;2022-10-16T07:59:30;12.70;99.90
37896;DHT22;23733;53.254;10.430;2022-10-16T08:01:56;12.70;99.90
37896;DHT22;23733;53.254;10.430;2022-10-16T08:04:22;12.80;99.90
37896;DHT22;23733;53.254;10.430;2022-10-16T08:06:48;12.80;99.90
37896;DHT22;23733;53.254;10.430;2022-10-16T08:09:15;12.90;99.90
37896;DHT22;23733;53.254;10.430;2022-10-16T08:11:41;13.00;99.90
37896;DHT22;23733;53.254;10.430;2022-10-16T08:14:07;13.00;99.90
37896;DHT22;23733;53.254;10.430;2022-10-16T08:16:33;13.10;99.90
37896;DHT22;23733;53.254;10.430;2022-10-16T08:18:59;13.20;99.90
37896;DHT22;23733;53.254;10.430;2022-10-16T08:21:25;13.40;99.90
37896;DHT22;23733;53.254;10.430;2022-10-16T08:23:53;13.50;99.90
37896;DHT22;23733;53.254;10.430;2022-10-16T08:26:19;13.50;99.90
37896;DHT22;23733;53.254;10.430;2022-10-16T08:28:46;13.60;99.90
37896;DHT22;23733;53.254;10.430;2022-10-16T08:31:15;13.60;99.90
37896;DHT22;23733;53.254;10.430;2022-10-16T08:33:45;13.60;99.90
37896;DHT22;23733;53.254;10.430;2022-10-16T08:36:13;13.70;99.90
37896;DHT22;23733;53.254;10.430;2022-10-16T08:38:39;13.70;99.90
37896;DHT22;23733;53.254;10.430;2022-10-16T08:41:28;13.80;99.90
37896;DHT22;23733;53.254;10.430;2022-10-16T08:44:07;13.90;99.90
37896;DHT22;23733;53.254;10.430;2022-10-16T08:49:31;14.10;99.90
37896;DHT22;23733;53.254;10.430;2022-10-16T08:51:58;14.10;99.90
37896;DHT22;23733;53.254;10.430;2022-10-16T08:54:37;14.20;99.90
37896;DHT22;23733;53.254;10.430;2022-10-16T08:57:13;14.20;99.90
37896;DHT22;23733;53.254;10.430;2022-10-16T08:59:40;14.20;99.90
37896;DHT22;23733;53.254;10.430;2022-10-16T09:02:35;14.30;99.90
37896;DHT22;23733;53.254;10.430;2022-10-16T09:05:28;14.40;99.90
37896;DHT22;23733;53.254;10.430;2022-10-16T09:11:13;14.50;99.90
37896;DHT22;23733;53.254;10.430;2022-10-16T09:14:11;14.50;99.90
37896;DHT22;23733;53.254;10.430;2022-10-16T09:16:48;14.60;99.90
37896;DHT22;23733;53.254;10.430;2022-10-16T09:19:33;14.70;99.90
37896;DHT22;23733;53.254;10.430;2022-10-16T09:22:10;14.80;99.90
37896;DHT22;23733;53.254;10.430;2022-10-16T09:24:38;14.80;99.90
37896;DHT22;23733;53.254;10.430;2022-10-16T09:27:04;14.90;99.90
37896;DHT22;23733;53.254;10.430;2022-10-16T09:54:20;15.00;99.90
37896;DHT22;23733;53.254;10.430;2022-10-16T09:56:47;16.00;99.90
37896;DHT22;23733;53.254;10.430;2022-10-16T09:59:22;16.10;99.90
37896;DHT22;23733;53.254;10.430;2022-10-16T10:01:54;16.20;99.90
37896;DHT22;23733;53.254;10.430;2022-10-16T10:04:23;16.30;99.90
37896;DHT22;23733;53.254;10.430;2022-10-16T10:06:50;16.30;99.90
37896;DHT22;23733;53.254;10.430;2022-10-16T10:11:57;16.40;99.90
37896;DHT22;23733;53.254;10.430;2022-10-16T10:22:42;16.70;99.90
37896;DHT22;23733;53.254;10.430;2022-10-16T10:25:19;16.70;99.90
37896;DHT22;23733;53.254;10.430;2022-10-16T10:28:02;16.80;99.90
37896;DHT22;23733;53.254;10.430;2022-10-16T10:30:52;16.80;99.90
37896;DHT22;23733;53.254;10.430;2022-10-16T10:36:05;16.90;99.90
37896;DHT22;23733;53.254;10.430;2022-10-16T10:41:33;17.00;99.90
37896;DHT22;23733;53.254;10.430;2022-10-16T10:44:09;17.10;99.90
37896;DHT22;23733;53.254;10.430;2022-10-16T10:47:14;17.10;99.90
37896;DHT22;23733;53.254;10.430;2022-10-16T10:57:38;17.20;99.90
37896;DHT22;23733;53.254;10.430;2022-10-16T11:00:21;17.20;99.90
37896;DHT22;23733;53.254;10.430;2022-10-16T11:06:10;17.50;99.90
37896;DHT22;23733;53.254;10.430;2022-10-16T11:08:48;17.40;99.90
37896;DHT22;23733;53.254;10.430;2022-10-16T11:11:24;17.40;99.90
37896;DHT22;23733;53.254;10.430;2022-10-16T11:13:59;17.50;99.90
37896;DHT22;23733;53.254;10.430;2022-10-16T11:16:30;17.50;99.90
37896;DHT22;23733;53.254;10.430;2022-10-16T11:19:14;17.60;99.90
37896;DHT22;23733;53.254;10.430;2022-10-16T11:21:48;17.70;99.90
37896;DHT22;23733;53.254;10.430;2022-10-16T11:24:22;17.80;99.90
37896;DHT22;23733;53.254;10.430;2022-10-16T11:26:50;17.80;99.90
37896;DHT22;23733;53.254;10.430;2022-10-16T11:29:27;17.80;99.90
37896;DHT22;23733;53.254;10.430;2022-10-16T11:31:58;17.80;99.90
37896;DHT22;23733;53.254;10.430;2022-10-16T11:34:48;17.70;99.90
37896;DHT22;23733;53.254;10.430;2022-10-16T11:37:24;17.80;99.90
37896;DHT22;23733;53.254;10.430;2022-10-16T11:39:54;17.80;99.90
37896;DHT22;23733;53.254;10.430;2022-10-16T11:42:32;17.80;99.90
37896;DHT22;23733;53.254;10.430;2022-10-16T11:45:34;17.90;99.90
37896;DHT22;23733;53.254;10.430;2022-10-16T11:48:30;18.00;99.90
37896;DHT22;23733;53.254;10.430;2022-10-16T11:51:29;18.00;99.90
37896;DHT22;23733;53.254;10.430;2022-10-16T11:54:21;17.90;99.90
37896;DHT22;23733;53.254;10.430;2022-10-16T11:56:52;17.90;99.90
37896;DHT22;23733;53.254;10.430;2022-10-16T11:59:41;17.90;99.90
37896;DHT22;23733;53.254;10.430;2022-10-16T12:05:22;17.80;99.90
37896;DHT22;23733;53.254;10.430;2022-10-16T12:08:06;17.90;99.90
37896;DHT22;23733;53.254;10.430;2022-10-16T12:10:35;18.00;99.90
37896;DHT22;23733;53.254;10.430;2022-10-16T12:15:50;18.10;99.90
37896;DHT22;23733;53.254;10.430;2022-10-16T12:18:23;18.10;99.90
37896;DHT22;23733;53.254;10.430;2022-10-16T12:20:57;18.10;99.90
37896;DHT22;23733;53.254;10.430;2022-10-16T12:23:25;18.10;99.90
37896;DHT22;23733;53.254;10.430;2022-10-16T12:25:59;18.10;99.90
37896;DHT22;23733;53.254;10.430;2022-10-16T12:28:27;18.00;99.90
37896;DHT22;23733;53.254;10.430;2022-10-16T12:31:03;18.00;99.90
37896;DHT22;23733;53.254;10.430;2022-10-16T12:33:33;18.10;99.90
37896;DHT22;23733;53.254;10.430;2022-10-16T12:36:01;18.10;99.90
37896;DHT22;23733;53.254;10.430;2022-10-16T12:38:52;18.00;99.90
37896;DHT22;23733;53.254;10.430;2022-10-16T12:41:28;18.10;99.90
37896;DHT22;23733;53.254;10.430;2022-10-16T12:43:55;18.10;99.90
37896;DHT22;23733;53.254;10.430;2022-10-16T12:46:38;18.00;99.90
37896;DHT22;23733;53.254;10.430;2022-10-16T12:51:54;18.00;99.90
37896;DHT22;23733;53.254;10.430;2022-10-16T12:54:29;17.90;99.90
37896;DHT22;23733;53.254;10.430;2022-10-16T13:14:06;18.00;99.90
37896;DHT22;23733;53.254;10.430;2022-10-16T13:24:58;17.90;99.90
37896;DHT22;23733;53.254;10.430;2022-10-16T13:27:56;17.80;99.90
37896;DHT22;23733;53.254;10.430;2022-10-16T13:30:27;17.90;99.90
37896;DHT22;23733;53.254;10.430;2022-10-16T13:33:13;18.00;99.90
37896;DHT22;23733;53.254;10.430;2022-10-16T13:35:56;18.00;99.90
37896;DHT22;23733;53.254;10.430;2022-10-16T13:38:28;18.10;99.90
37896;DHT22;23733;53.254;10.430;2022-10-16T13:40:56;18.20;99.90
37896;DHT22;23733;53.254;10.430;2022-10-16T13:46:02;18.10;99.90
37896;DHT22;23733;53.254;10.430;2022-10-16T13:48:30;18.10;99.90
37896;DHT22;23733;53.254;10.430;2022-10-16T13:51:00;18.00;99.90
37896;DHT22;23733;53.254;10.430;2022-10-16T13:53:27;18.00;99.90
37896;DHT22;23733;53.254;10.430;2022-10-16T14:20:45;18.00;99.90
37896;DHT22;23733;53.254;10.430;2022-10-16T14:23:29;18.10;99.90
37896;DHT22;23733;53.254;10.430;2022-10-16T14:28:40;18.10;99.90
37896;DHT22;23733;53.254;10.430;2022-10-16T14:31:26;18.10;99.90
37896;DHT22;23733;53.254;10.430;2022-10-16T14:33:53;18.00;99.90
37896;DHT22;23733;53.254;10.430;2022-10-16T14:36:19;18.00;99.90
37896;DHT22;23733;53.254;10.430;2022-10-16T14:38:58;18.00;99.90
37896;DHT22;23733;53.254;10.430;2022-10-16T14:41:24;18.00;99.90
37896;DHT22;23733;53.254;10.430;2022-10-16T14:43:53;18.00;99.90
37896;DHT22;23733;53.254;10.430;2022-10-16T14:51:39;18.00;99.90
37896;DHT22;23733;53.254;10.430;2022-10-16T14:54:11;17.90;99.90
37896;DHT22;23733;53.254;10.430;2022-10-16T14:56:52;17.90;99.90
37896;DHT22;23733;53.254;10.430;2022-10-16T14:59:33;18.00;99.90
37896;DHT22;23733;53.254;10.430;2022-10-16T15:02:09;17.90;99.90
37896;DHT22;23733;53.254;10.430;2022-10-16T15:04:39;17.90;99.90
37896;DHT22;23733;53.254;10.430;2022-10-16T15:07:07;17.80;99.90
37896;DHT22;23733;53.254;10.430;2022-10-16T15:09:33;17.80;99.90
37896;DHT22;23733;53.254;10.430;2022-10-16T15:11:59;17.80;99.90
37896;DHT22;23733;53.254;10.430;2022-10-16T15:14:25;17.80;99.90
37896;DHT22;23733;53.254;10.430;2022-10-16T15:16:51;17.70;99.90
37896;DHT22;23733;53.254;10.430;2022-10-16T15:19:17;17.70;99.90
37896;DHT22;23733;53.254;10.430;2022-10-16T15:21:44;17.70;99.90
37896;DHT22;23733;53.254;10.430;2022-10-16T15:24:12;17.60;99.90
37896;DHT22;23733;53.254;10.430;2022-10-16T15:26:39;17.60;99.90
37896;DHT22;23733;53.254;10.430;2022-10-16T15:29:05;17.60;99.90
37896;DHT22;23733;53.254;10.430;2022-10-16T15:31:31;17.60;99.90
37896;DHT22;23733;53.254;10.430;2022-10-16T15:33:58;17.50;99.90
37896;DHT22;23733;53.254;10.430;2022-10-16T15:36:30;17.50;99.90
37896;DHT22;23733;53.254;10.430;2022-10-16T15:38:59;17.50;99.90
37896;DHT22;23733;53.254;10.430;2022-10-16T15:41:25;17.40;99.90
37896;DHT22;23733;53.254;10.430;2022-10-16T15:43:51;17.40;99.90
37896;DHT22;23733;53.254;10.430;2022-10-16T15:46:19;17.40;99.90
37896;DHT22;23733;53.254;10.430;2022-10-16T15:48:47;17.30;99.90
37896;DHT22;23733;53.254;10.430;2022-10-16T15:51:13;17.30;99.90
37896;DHT22;23733;53.254;10.430;2022-10-16T15:53:40;17.30;99.90
37896;DHT22;23733;53.254;10.430;2022-10-16T15:56:07;17.30;99.90
37896;DHT22;23733;53.254;10.430;2022-10-16T15:58:33;17.30;99.90
37896;DHT22;23733;53.254;10.430;2022-10-16T16:01:00;17.20;99.90
37896;DHT22;23733;53.254;10.430;2022-10-16T16:03:28;17.20;99.90
37896;DHT22;23733;53.254;10.430;2022-10-16T16:05:54;17.20;99.90
37896;DHT22;23733;53.254;10.430;2022-10-16T16:08:20;17.10;99.90
37896;DHT22;23733;53.254;10.430;2022-10-16T16:10:57;17.10;99.90
37896;DHT22;23733;53.254;10.430;2022-10-16T16:13:24;17.10;99.90
37896;DHT22;23733;53.254;10.430;2022-10-16T16:15:50;17.10;99.90
37896;DHT22;23733;53.254;10.430;2022-10-16T16:18:16;17.00;99.90
37896;DHT22;23733;53.254;10.430;2022-10-16T16:20:42;17.00;99.90
37896;DHT22;23733;53.254;10.430;2022-10-16T16:23:08;16.90;99.90
37896;DHT22;23733;53.254;10.430;2022-10-16T16:25:34;16.90;99.90
37896;DHT22;23733;53.254;10.430;2022-10-16T16:28:00;16.90;99.90
37896;DHT22;23733;53.254;10.430;2022-10-16T16:30:26;16.90;99.90
37896;DHT22;23733;53.254;10.430;2022-10-16T16:32:52;16.80;99.90
37896;DHT22;23733;53.254;10.430;2022-10-16T16:35:18;16.80;99.90
37896;DHT22;23733;53.254;10.430;2022-10-16T16:37:44;16.80;99.90
37896;DHT22;23733;53.254;10.430;2022-10-16T16:40:10;16.80;99.90
37896;DHT22;23733;53.254;10.430;2022-10-16T16:42:36;16.80;99.90
37896;DHT22;23733;53.254;10.430;2022-10-16T16:45:02;16.80;99.90
37896;DHT22;23733;53.254;10.430;2022-10-16T16:47:28;16.80;99.90
37896;DHT22;23733;53.254;10.430;2022-10-16T16:49:54;16.80;99.90
37896;DHT22;23733;53.254;10.430;2022-10-16T16:52:20;16.80;99.90
37896;DHT22;23733;53.254;10.430;2022-10-16T16:54:48;16.80;99.90
37896;DHT22;23733;53.254;10.430;2022-10-16T16:57:20;16.80;99.90
37896;DHT22;23733;53.254;10.430;2022-10-16T16:59:46;16.80;99.90
37896;DHT22;23733;53.254;10.430;2022-10-16T17:02:12;16.80;99.90
37896;DHT22;23733;53.254;10.430;2022-10-16T17:04:38;16.70;99.90
37896;DHT22;23733;53.254;10.430;2022-10-16T17:07:04;16.70;99.90
37896;DHT22;23733;53.254;10.430;2022-10-16T17:09:32;16.70;99.90
37896;DHT22;23733;53.254;10.430;2022-10-16T17:11:59;16.60;99.90
37896;DHT22;23733;53.254;10.430;2022-10-16T17:14:25;16.50;99.90
37896;DHT22;23733;53.254;10.430;2022-10-16T17:16:51;16.50;99.90
37896;DHT22;23733;53.254;10.430;2022-10-16T17:19:19;16.50;99.90
37896;DHT22;23733;53.254;10.430;2022-10-16T17:21:48;16.40;99.90
37896;DHT22;23733;53.254;10.430;2022-10-16T17:24:14;16.50;99.90
37896;DHT22;23733;53.254;10.430;2022-10-16T17:26:41;16.50;99.90
37896;DHT22;23733;53.254;10.430;2022-10-16T17:29:11;16.50;99.90
37896;DHT22;23733;53.254;10.430;2022-10-16T17:31:37;16.40;99.90
37896;DHT22;23733;53.254;10.430;2022-10-16T17:34:06;16.40;99.90
37896;DHT22;23733;53.254;10.430;2022-10-16T17:36:34;16.40;99.90
37896;DHT22;23733;53.254;10.430;2022-10-16T17:39:04;16.40;99.90
37896;DHT22;23733;53.254;10.430;2022-10-16T17:41:31;16.30;99.90
37896;DHT22;23733;53.254;10.430;2022-10-16T17:43:58;16.30;99.90
37896;DHT22;23733;53.254;10.430;2022-10-16T17:46:24;16.20;99.90
37896;DHT22;23733;53.254;10.430;2022-10-16T17:48:52;16.20;99.90
37896;DHT22;23733;53.254;10.430;2022-10-16T17:51:22;16.10;99.90
37896;DHT22;23733;53.254;10.430;2022-10-16T17:53:49;16.10;99.90
37896;DHT22;23733;53.254;10.430;2022-10-16T17:56:16;16.00;99.90
37896;DHT22;23733;53.254;10.430;2022-10-16T17:58:43;16.00;99.90
37896;DHT22;23733;53.254;10.430;2022-10-16T18:01:18;16.00;99.90